createdAt,value
2016-05-24T12:27:14.130Z,0.7
2016-05-24T12:27:23.958Z,0.7
2016-05-24T12:27:34.099Z,0.7
2016-05-24T12:27:44.101Z,0.7
2016-05-24T12:27:53.929Z,0.7
2016-05-24T12:28:04.163Z,0.7
2016-05-24T12:28:14.054Z,0.7
2016-05-24T12:28:24.038Z,0.7
2016-05-24T12:28:34.023Z,0.7
2016-05-24T12:28:44.026Z,0.7
2016-05-24T12:28:53.869Z,0.7
2016-05-24T12:29:03.994Z,65.2
2016-05-24T12:29:14.104Z,65.1
2016-05-24T12:29:24.088Z,65
2016-05-24T12:29:34.088Z,64.9
2016-05-24T12:29:44.060Z,64.8
2016-05-24T12:29:54.076Z,64.8
2016-05-24T12:30:04.404Z,64.7
2016-05-24T12:30:14.060Z,64.7
2016-05-24T12:30:23.888Z,64.6
2016-05-24T12:30:33.888Z,64.6
2016-05-24T12:30:44.313Z,64.6
2016-05-24T12:30:54.016Z,64.6
2016-05-24T12:31:03.985Z,64.6
2016-05-24T12:31:13.985Z,64.6
2016-05-24T12:31:23.969Z,64.6
2016-05-24T12:31:33.954Z,64.5
2016-05-24T12:31:43.800Z,64.6
2016-05-24T12:31:54.050Z,64.5
2016-05-24T12:32:03.925Z,64.5
2016-05-24T12:32:13.613Z,64.5
2016-05-24T12:32:24.019Z,64.6
2016-05-24T12:32:33.972Z,64.7
2016-05-24T12:32:43.943Z,64.6
2016-05-24T12:32:53.568Z,64.4
2016-05-24T12:33:03.865Z,64.3
2016-05-24T12:33:13.771Z,64.2
2016-05-24T12:33:23.865Z,64.2
2016-05-24T12:33:33.880Z,64.2
2016-05-24T12:33:43.821Z,64.3
2016-05-24T12:33:53.680Z,64.2
2016-05-24T12:34:03.805Z,64.1
2016-05-24T12:34:13.805Z,64
2016-05-24T12:34:23.868Z,63.9
2016-05-24T12:34:33.633Z,63.8
2016-05-24T12:34:43.777Z,63.6
2016-05-24T12:34:53.605Z,63.5
2016-05-24T12:35:03.449Z,63.4
2016-05-24T12:35:13.746Z,63.1
2016-05-24T12:35:23.730Z,62.9
2016-05-24T12:35:33.746Z,62.8
2016-05-24T12:35:43.561Z,62.7
2016-05-24T12:35:53.718Z,62.5
2016-05-24T12:36:03.702Z,62.3
2016-05-24T12:36:13.702Z,62.3
2016-05-24T12:36:23.686Z,62.3
2016-05-24T12:36:33.530Z,62.3
2016-05-24T12:36:43.516Z,62.2
2016-05-24T12:36:53.345Z,0.7
2016-05-24T12:37:03.516Z,0.7
2016-05-24T12:37:13.641Z,0.7
2016-05-24T12:37:23.470Z,0.7
2016-05-24T12:37:33.470Z,0.7
2016-05-24T12:37:43.613Z,0.7
2016-05-24T12:37:53.598Z,0.7
2016-05-24T12:38:03.598Z,0.7
2016-05-24T12:38:13.582Z,0.7
2016-05-24T12:38:23.426Z,0.7
2016-05-24T12:38:33.566Z,0.7
2016-05-24T12:38:43.553Z,0.7
2016-05-24T12:38:53.600Z,0.7
2016-05-24T12:39:03.537Z,0.7
2016-05-24T12:39:13.521Z,0.7
2016-05-24T12:39:23.365Z,0.7
2016-05-24T12:39:33.506Z,0.7
2016-05-24T12:39:43.509Z,0.7
2016-05-24T12:39:53.493Z,0.7
2016-05-24T12:40:03.321Z,0.7
2016-05-24T12:40:13.321Z,0.7
2016-05-24T12:40:23.478Z,0.7
2016-05-24T12:40:33.446Z,0.7
2016-05-24T12:40:43.512Z,0.7
2016-05-24T12:40:53.434Z,0.7
2016-05-24T12:41:03.418Z,0.7
2016-05-24T12:41:13.418Z,0.7
2016-05-24T12:41:23.402Z,0.7
2016-05-24T12:41:33.418Z,0.7
2016-05-24T12:41:43.404Z,0.7
2016-05-24T12:41:53.373Z,0.7
2016-05-24T12:42:03.373Z,0.7
2016-05-24T12:42:13.404Z,0.7
2016-05-24T12:42:23.358Z,0.7
2016-05-24T12:42:33.233Z,0.7
2016-05-24T12:42:43.329Z,0.7
2016-05-24T12:42:53.267Z,0.7
2016-05-24T12:43:03.314Z,0.7
2016-05-24T12:43:13.267Z,0.7
2016-05-24T12:43:23.298Z,0.7
2016-05-24T12:43:33.282Z,0.7
2016-05-24T12:43:43.300Z,0.7
2016-05-24T12:43:53.347Z,0.7
2016-05-24T12:44:03.269Z,0.7
2016-05-24T12:44:14.034Z,0.7
2016-05-24T12:44:23.097Z,0.7
2016-05-24T12:44:33.238Z,0.7
2016-05-24T12:44:45.569Z,0.7
2016-05-24T12:44:53.084Z,0.7
2016-05-24T12:45:03.287Z,0.7
2016-05-24T12:45:13.506Z,0.7
2016-05-24T12:45:23.944Z,0.7
2016-05-24T12:45:33.662Z,0.7
2016-05-24T12:45:43.416Z,0.7
2016-05-24T12:45:53.166Z,0.7
2016-05-24T12:46:03.198Z,0.7
2016-05-24T12:46:13.588Z,0.7
2016-05-24T12:46:20.713Z,0.7
2016-05-24T12:46:30.104Z,0.7
2016-05-24T12:46:40.684Z,0.7
2016-05-24T12:46:50.700Z,0.7
2016-05-24T12:47:00.590Z,0.7
2016-05-24T12:47:10.512Z,0.7
2016-05-24T12:47:20.497Z,0.7
2016-05-24T12:47:30.653Z,0.7
2016-05-24T12:47:40.483Z,0.7
2016-05-24T12:47:50.624Z,0.7
2016-05-24T12:48:00.545Z,0.7
2016-05-24T12:48:10.608Z,0.7
2016-05-24T12:48:20.608Z,0.7
2016-05-24T12:48:30.936Z,0.7
2016-05-24T12:48:41.158Z,0.7
2016-05-24T12:48:51.923Z,0.7
2016-05-24T12:49:01.173Z,66.7
2016-05-24T12:49:12.392Z,60.6
2016-05-24T12:49:21.173Z,57
2016-05-24T12:49:31.173Z,54.8
2016-05-24T12:49:41.176Z,53.7
2016-05-24T12:49:51.708Z,53.1
2016-05-24T12:50:01.005Z,54
2016-05-24T12:50:11.130Z,53.9
2016-05-24T12:50:21.208Z,56.4
2016-05-24T12:50:31.208Z,55.9
2016-05-24T12:50:41.148Z,54.5
2016-05-24T12:50:50.961Z,53.6
2016-05-24T12:51:01.179Z,53
2016-05-24T12:51:11.133Z,52.5
2016-05-24T12:51:21.179Z,52.2
2016-05-24T12:51:30.929Z,55.3
2016-05-24T12:51:41.073Z,70.5
2016-05-24T12:51:50.745Z,69.3
2016-05-24T12:52:01.042Z,61
2016-05-24T12:52:10.948Z,56.7
2016-05-24T12:52:20.886Z,54.5
2016-05-24T12:52:31.057Z,53.4
2016-05-24T12:52:41.013Z,53
2016-05-24T12:52:50.856Z,52.9
2016-05-24T12:53:01.013Z,52.8
2016-05-24T12:53:11.091Z,52.9
2016-05-24T12:53:20.981Z,52.9
2016-05-24T12:53:30.966Z,53.1
2016-05-24T12:53:40.953Z,53.2
2016-05-24T12:53:50.969Z,53.3
2016-05-24T12:54:00.953Z,53.4
2016-05-24T12:54:10.937Z,53.5
2016-05-24T12:54:20.922Z,53.5
2016-05-24T12:54:30.906Z,53.7
2016-05-24T12:54:40.753Z,53.7
2016-05-24T12:54:51.347Z,53.8
2016-05-24T12:55:00.894Z,54
2016-05-24T12:55:10.894Z,54.2
2016-05-24T12:55:20.878Z,54.4
2016-05-24T12:55:30.862Z,54.5
2016-05-24T12:55:40.724Z,54.7
2016-05-24T12:55:50.692Z,54.9
2016-05-24T12:56:00.864Z,55.1
2016-05-24T12:56:10.849Z,55.2
2016-05-24T12:56:20.927Z,55.3
2016-05-24T12:56:30.927Z,55.4
2016-05-24T12:56:40.805Z,55.5
2016-05-24T12:56:50.805Z,55.6
2016-05-24T12:57:00.789Z,55.6
2016-05-24T12:57:10.789Z,55.5
2016-05-24T12:57:20.789Z,55.7
2016-05-24T12:57:30.758Z,66.4
2016-05-24T12:57:40.604Z,71.3
2016-05-24T12:57:50.838Z,62
2016-05-24T12:58:00.744Z,56.7
2016-05-24T12:58:10.744Z,54.2
2016-05-24T12:58:20.729Z,53.1
2016-05-24T12:58:30.713Z,52.8
2016-05-24T12:58:40.716Z,52.9
2016-05-24T12:58:50.700Z,53.2
2016-05-24T12:59:00.560Z,53.4
2016-05-24T12:59:11.825Z,53.9
2016-05-24T12:59:20.529Z,56.1
2016-05-24T12:59:30.685Z,69
2016-05-24T12:59:40.672Z,68.2
2016-05-24T12:59:52.360Z,61.8
2016-05-24T13:00:00.500Z,58.3
2016-05-24T13:00:10.578Z,56.8
2016-05-24T13:00:20.735Z,56
2016-05-24T13:00:30.641Z,55.9
2016-05-24T13:00:41.002Z,56.2
2016-05-24T13:00:50.424Z,56.5
2016-05-24T13:01:01.034Z,57.1
2016-05-24T13:01:11.034Z,57.6
2016-05-24T13:01:20.565Z,58.1
2016-05-24T13:01:30.612Z,58.3
2016-05-24T13:01:40.615Z,58.8
2016-05-24T13:01:50.677Z,59.1
2016-05-24T13:02:00.552Z,59.4
2016-05-24T13:02:10.380Z,59.7
2016-05-24T13:02:20.521Z,59.9
2016-05-24T13:02:30.505Z,60
2016-05-24T13:02:40.368Z,60
2016-05-24T13:02:50.508Z,59.9
2016-05-24T13:03:00.493Z,59.8
2016-05-24T13:03:10.493Z,59.7
2016-05-24T13:03:20.305Z,59.8
2016-05-24T13:03:30.461Z,59.8
2016-05-24T13:03:40.463Z,60
2016-05-24T13:03:50.276Z,60.1
2016-05-24T13:04:00.432Z,60.2
2016-05-24T13:04:12.823Z,60.4
2016-05-24T13:04:20.432Z,60.4
2016-05-24T13:04:30.417Z,60.5
2016-05-24T13:04:40.404Z,60.5
2016-05-24T14:02:06.370Z,62.5
2016-05-24T14:02:16.214Z,62.1
2016-05-24T14:02:26.355Z,62.1
2016-05-24T14:02:36.355Z,62.1
2016-05-24T14:02:55.935Z,62
2016-05-24T14:03:55.109Z,62.4
2016-05-24T14:04:00.265Z,62.4
2016-05-24T14:04:10.484Z,62.4
2016-05-24T14:04:20.406Z,62.9
2016-05-24T14:04:30.406Z,62.8
2016-05-24T14:04:40.472Z,62.5
2016-05-24T14:04:50.378Z,62.4
2016-05-24T14:05:00.363Z,62.9
2016-05-24T14:06:02.428Z,63.2
2016-05-24T14:06:07.585Z,65.2
2016-05-24T14:06:17.725Z,65.3
2016-05-24T14:06:27.710Z,64.6
2016-05-24T14:06:37.553Z,63.4
2016-05-24T14:06:47.758Z,63.7
2016-05-24T14:06:57.680Z,62.8
2016-05-24T14:07:07.665Z,62.8
2016-05-24T14:07:17.508Z,62.8
2016-05-24T14:07:27.758Z,62.8
2016-05-24T14:07:37.540Z,62.8
2016-05-24T14:07:47.746Z,61.8
2016-05-24T14:07:57.605Z,61.9
2016-05-24T14:08:07.636Z,61.8
2016-05-24T14:08:17.636Z,62.1
2016-05-24T14:08:27.590Z,61.7
2016-05-24T14:08:37.605Z,61.6
2016-05-24T14:08:47.435Z,61.4
2016-05-24T14:08:57.560Z,60.8
2016-05-24T14:09:07.435Z,60.9
2016-05-24T14:09:17.388Z,60.7
2016-05-24T14:09:27.373Z,60.7
2016-05-24T14:09:37.513Z,60.7
2016-05-24T14:09:47.516Z,60.7
2016-05-24T14:09:57.345Z,60.6
2016-05-24T14:10:07.579Z,60.4
2016-05-24T14:10:17.485Z,60.6
2016-05-24T14:10:27.470Z,60.8
2016-05-24T14:10:37.313Z,60.6
2016-05-24T14:10:47.301Z,60.7
2016-05-24T14:10:57.488Z,60.9
2016-05-24T14:11:07.519Z,60.9
2016-05-24T14:11:17.457Z,61.1
2016-05-24T14:14:47.358Z,60.9
2016-05-24T14:14:57.342Z,60.9
2016-05-24T14:15:07.201Z,61.5
2016-05-24T14:15:17.264Z,61.8
2016-05-24T14:15:27.170Z,61.4
2016-05-24T14:15:37.170Z,61.5
2016-05-24T14:15:47.673Z,61.5
2016-05-24T14:15:58.329Z,61.6
2016-05-24T14:16:07.345Z,61.7
2016-05-24T14:16:17.267Z,71.1
2016-05-24T14:16:27.282Z,73.5
2016-05-24T14:16:37.251Z,67.6
2016-05-24T14:16:47.254Z,64.1
2016-05-24T14:16:57.223Z,61.7
2016-05-24T14:17:07.223Z,60.1
2016-05-24T14:17:17.207Z,59
2016-05-24T14:17:27.192Z,58.4
2016-05-24T14:17:37.207Z,58.3
2016-05-24T14:17:47.038Z,57.8
2016-05-24T14:17:57.179Z,57.3
2016-05-24T14:18:07.163Z,57.4
2016-05-24T14:18:17.148Z,57.5
2016-05-24T14:18:27.148Z,57.5
2016-05-24T14:18:36.976Z,55.8
2016-05-24T14:18:47.134Z,53.6
2016-05-24T14:18:57.119Z,51.6
2016-05-24T14:19:07.103Z,50.3
2016-05-24T14:19:17.087Z,49.5
2016-05-24T14:19:27.087Z,49.1
2016-05-24T14:19:37.072Z,48.9
2016-05-24T14:19:46.918Z,48.9
2016-05-24T14:19:57.059Z,49
2016-05-24T14:20:07.043Z,48.9
2016-05-24T14:20:17.043Z,49.3
2016-05-24T14:20:27.028Z,49.7
2016-05-24T14:20:36.715Z,50.2
2016-05-24T14:20:47.015Z,50.8
2016-05-24T14:20:57.000Z,51.4
2016-05-24T14:21:07.000Z,51.5
2016-05-24T14:21:16.828Z,52
2016-05-24T14:21:26.968Z,53
2016-05-24T14:21:36.953Z,53.2
2016-05-24T14:21:46.956Z,53.5
2016-05-24T14:21:56.799Z,53.9
2016-05-24T14:22:06.940Z,54
2016-05-24T14:22:16.924Z,54.5
2016-05-24T14:22:26.768Z,54.9
2016-05-24T14:22:36.753Z,55.2
2016-05-24T14:22:46.895Z,55.7
2016-05-24T14:22:56.880Z,56.2
2016-05-24T14:23:06.880Z,57
2016-05-24T14:23:16.864Z,56.8
2016-05-24T14:23:26.864Z,56.7
2016-05-24T14:23:36.848Z,57.3
2016-05-24T14:23:46.851Z,58.3
2016-05-24T14:23:56.836Z,58.8
2016-05-24T14:24:06.836Z,58.8
2016-05-24T14:24:16.820Z,58.8
2016-05-24T14:24:26.820Z,58.9
2016-05-24T14:24:36.836Z,59.2
2016-05-24T14:24:46.776Z,59.8
2016-05-24T14:24:56.776Z,60.1
2016-05-24T14:25:06.761Z,60.2
2016-05-24T14:25:16.807Z,61
2016-05-24T14:25:26.745Z,61
2016-05-24T14:25:36.729Z,61.1
2016-05-24T14:25:46.731Z,61.6
2016-05-24T14:25:56.700Z,61.4
2016-05-24T14:26:06.544Z,61.5
2016-05-24T14:26:16.684Z,61.7
2016-05-24T14:26:26.684Z,62.1
2016-05-24T14:26:36.528Z,62.4
2016-05-24T14:26:46.656Z,62.6
2016-05-24T14:26:56.641Z,62.9
2016-05-24T14:27:06.641Z,63
2016-05-24T14:27:16.625Z,63.9
2016-05-24T14:27:26.609Z,63.8
2016-05-24T14:27:36.609Z,64.1
2016-05-24T14:27:46.597Z,64.5
2016-05-24T14:27:56.581Z,64.6
2016-05-24T14:28:06.581Z,64.8
2016-05-24T14:28:16.550Z,65
2016-05-24T14:28:26.550Z,65.1
2016-05-24T14:28:36.628Z,65.6
2016-05-24T14:28:46.536Z,65.1
2016-05-24T14:28:56.521Z,65.8
2016-05-24T14:29:06.505Z,66
2016-05-24T14:29:16.489Z,66
2016-05-24T14:29:26.489Z,65.9
2016-05-24T14:29:36.317Z,66.4
2016-05-24T14:29:46.477Z,66.6
2016-05-24T14:29:56.305Z,67.2
2016-05-24T14:30:06.852Z,66.6
2016-05-24T14:30:18.086Z,66.8
2016-05-24T14:30:26.274Z,66.7
2016-05-24T14:30:36.727Z,66.9
2016-05-24T14:30:47.088Z,67.1
2016-05-24T14:30:56.276Z,67.3
2016-05-24T14:31:06.229Z,67.5
2016-05-24T14:31:16.447Z,67.5
2016-05-24T14:31:26.354Z,67.5
2016-05-24T14:31:36.338Z,68.2
2016-05-24T14:31:46.341Z,68.3
2016-05-24T14:31:56.185Z,68
2016-05-24T14:32:06.310Z,68.6
2016-05-24T14:32:16.310Z,68.6
2016-05-24T14:32:26.294Z,68.8
2016-05-24T14:32:36.279Z,68.7
2016-05-24T14:32:46.141Z,68.9
2016-05-24T14:32:56.266Z,69
2016-05-24T14:33:06.250Z,69.2
2016-05-24T14:33:16.094Z,69.1
2016-05-24T14:33:26.235Z,69.1
2016-05-24T14:33:36.235Z,69.4
2016-05-24T14:33:46.205Z,69.4
2016-05-24T14:33:56.205Z,69.2
2016-05-24T14:34:06.034Z,69.2
2016-05-24T14:34:16.190Z,69.1
2016-05-24T14:34:26.018Z,69.2
2016-05-24T14:34:36.159Z,69.6
2016-05-24T14:34:46.163Z,69.7
2016-05-24T14:34:56.131Z,69.6
2016-05-24T14:35:05.975Z,69.6
2016-05-24T14:35:16.116Z,69.6
2016-05-24T14:35:26.100Z,69.6
2016-05-24T14:35:36.084Z,69.8
2016-05-24T14:35:45.930Z,69.7
2016-05-24T14:35:56.071Z,69.8
2016-05-24T14:36:06.071Z,69.7
2016-05-24T14:36:15.899Z,69.1
2016-05-24T14:36:26.040Z,68.9
2016-05-24T14:36:35.883Z,68.5
2016-05-24T14:36:46.010Z,68.7
2016-05-24T14:36:56.010Z,69
2016-05-24T14:37:05.995Z,68.9
2016-05-24T14:37:15.979Z,68.7
2016-05-24T14:37:25.963Z,69
2016-05-24T14:37:35.823Z,68.9
2016-05-24T14:37:45.952Z,68.9
2016-05-24T14:37:55.936Z,69.1
2016-05-24T14:38:05.780Z,69.4
2016-05-24T14:38:15.764Z,69.6
2016-05-24T14:38:25.905Z,70.1
2016-05-24T14:38:35.889Z,69.7
2016-05-24T14:38:45.735Z,70.4
2016-05-24T14:38:55.876Z,70.4
2016-05-24T14:39:05.860Z,70.5
2016-05-24T14:39:15.860Z,70.6
2016-05-24T14:39:25.844Z,70.7
2016-05-24T14:39:35.829Z,70.6
2016-05-24T14:39:45.659Z,71
2016-05-24T14:39:55.815Z,71.3
2016-05-24T14:40:05.800Z,71.4
2016-05-24T14:40:15.643Z,70.7
2016-05-24T14:40:25.768Z,70.7
2016-05-24T14:40:35.628Z,70.6
2016-05-24T14:40:45.757Z,70.4
2016-05-24T14:40:55.772Z,70.5
2016-05-24T14:41:05.741Z,70.8
2016-05-24T14:41:15.725Z,71.5
2016-05-24T14:41:25.554Z,71.2
2016-05-24T14:41:35.585Z,71.6
2016-05-24T14:41:45.696Z,71.4
2016-05-24T14:41:55.681Z,71.6
2016-05-24T14:42:05.681Z,71
2016-05-24T14:42:15.665Z,71.1
2016-05-24T14:42:25.493Z,71
2016-05-24T14:42:35.634Z,71.1
2016-05-24T14:42:45.637Z,71.2
2016-05-24T14:42:55.621Z,71.5
2016-05-24T14:43:05.605Z,71.7
2016-05-24T14:43:15.590Z,71.5
2016-05-24T14:43:25.574Z,71.3
2016-05-24T14:43:35.574Z,71.7
2016-05-24T14:43:45.405Z,71.8
2016-05-24T14:43:55.546Z,71.9
2016-05-24T14:44:05.546Z,71.9
2016-05-24T14:44:15.530Z,71.5
2016-05-24T14:44:25.530Z,71.5
2016-05-24T14:44:35.499Z,71.4
2016-05-24T14:44:45.345Z,71.7
2016-05-24T14:44:55.485Z,71.5
2016-05-24T14:45:05.470Z,71.3
2016-05-24T14:45:16.267Z,71.5
2016-05-24T14:45:25.735Z,71.1
2016-05-24T14:45:35.142Z,71.2
2016-05-24T14:45:45.410Z,71.7
2016-05-24T14:45:55.660Z,71.1
2016-05-24T14:46:05.535Z,71.3
2016-05-24T14:46:15.238Z,71.4
2016-05-24T14:46:25.238Z,71.3
2016-05-24T14:46:35.363Z,71.7
2016-05-24T14:46:45.365Z,71.1
2016-05-24T14:46:55.365Z,71
2016-05-24T14:47:05.350Z,71.2
2016-05-24T14:47:15.037Z,71.3
2016-05-24T14:47:25.319Z,71.9
2016-05-24T14:47:35.147Z,71.7
2016-05-24T14:47:45.306Z,71.8
2016-05-24T14:47:55.290Z,72.2
2016-05-24T14:48:05.275Z,72.5
2016-05-24T14:48:15.275Z,72.2
2016-05-24T14:48:25.259Z,72
2016-05-24T14:48:34.947Z,72.2
2016-05-24T14:48:45.231Z,72.6
2016-05-24T14:48:55.215Z,72.6
2016-05-24T14:49:05.200Z,72.8
2016-05-24T14:49:15.200Z,72.9
2016-05-24T14:49:25.184Z,73.1
2016-05-24T14:49:35.168Z,72.9
2016-05-24T14:49:45.031Z,73
2016-05-24T14:49:55.171Z,73.2
2016-05-24T14:50:05.140Z,72.7
2016-05-24T14:50:15.140Z,72.5
2016-05-24T14:50:25.124Z,72.9
2016-05-24T14:50:35.109Z,73.1
2016-05-24T14:50:45.095Z,73.1
2016-05-24T14:50:55.095Z,73.1
2016-05-24T14:51:05.080Z,73.1
2016-05-24T14:51:15.080Z,73.4
2016-05-24T14:51:24.908Z,73.4
2016-05-24T14:51:35.048Z,73.4
2016-05-24T14:51:45.036Z,73.2
2016-05-24T14:51:55.020Z,72.8
2016-05-24T14:52:04.864Z,73
2016-05-24T14:52:15.004Z,73.4
2016-05-24T14:52:24.989Z,73.3
2016-05-24T14:52:34.833Z,73.4
2016-05-24T14:52:44.976Z,73.5
2016-05-24T14:52:54.804Z,73.3
2016-05-24T14:53:04.945Z,73.6
2016-05-24T14:53:14.945Z,73.1
2016-05-24T14:53:24.773Z,72.9
2016-05-24T14:53:34.914Z,72.9
2016-05-24T14:53:44.900Z,72.8
2016-05-24T14:53:54.884Z,73
2016-05-24T14:54:04.744Z,73.1
2016-05-24T14:54:14.869Z,73.1
2016-05-24T14:54:24.713Z,72.8
2016-05-24T14:54:34.853Z,72.4
2016-05-24T14:54:44.684Z,72.7
2016-05-24T14:54:54.841Z,72.9
2016-05-24T14:55:04.809Z,72.7
2016-05-24T14:55:14.653Z,72.8
2016-05-24T14:55:24.794Z,72.9
2016-05-24T14:55:34.778Z,72.8
2016-05-24T14:55:44.780Z,72.9
2016-05-24T14:55:54.827Z,72.7
2016-05-24T14:56:04.608Z,72.9
2016-05-24T14:56:14.436Z,72.5
2016-05-24T14:56:24.718Z,72.7
2016-05-24T14:56:34.577Z,72.5
2016-05-24T14:56:44.409Z,72.5
2016-05-24T14:56:54.706Z,72.6
2016-05-24T14:57:04.690Z,72.2
2016-05-24T14:57:14.675Z,72.3
2016-05-24T14:57:24.659Z,72.2
2016-05-24T14:57:34.643Z,72.5
2016-05-24T14:57:44.645Z,72
2016-05-24T14:57:54.630Z,72.5
2016-05-24T14:58:04.614Z,72.3
2016-05-24T14:58:14.599Z,72.3
2016-05-24T14:58:24.302Z,72.5
2016-05-24T14:58:34.567Z,72.5
2016-05-24T14:58:44.570Z,72.6
2016-05-24T14:58:54.586Z,72.4
2016-05-24T14:59:04.555Z,72.4
2016-05-24T14:59:14.383Z,72.3
2016-05-24T14:59:24.367Z,72.6
2016-05-24T14:59:34.508Z,72.5
2016-05-24T14:59:44.510Z,72.5
2016-05-24T14:59:54.494Z,72.5
2016-05-24T15:00:04.354Z,72.5
2016-05-24T15:00:14.322Z,72.6
2016-05-24T15:00:24.650Z,73.3
2016-05-24T15:00:34.166Z,72.9
2016-05-24T15:00:44.638Z,73.2
2016-05-24T15:00:54.435Z,73.2
2016-05-24T15:01:04.810Z,73.2
2016-05-24T15:01:14.263Z,73.2
2016-05-24T15:01:24.388Z,72.7
2016-05-24T15:01:34.247Z,72.9
2016-05-24T15:01:44.391Z,73
2016-05-24T15:01:54.360Z,73.3
2016-05-24T15:02:04.203Z,73.5
2016-05-24T15:02:14.344Z,73.5
2016-05-24T15:02:24.328Z,73.4
2016-05-24T15:02:34.313Z,73.6
2016-05-24T15:02:44.159Z,73.5
2016-05-24T15:02:54.300Z,73.4
2016-05-24T15:03:04.128Z,73.7
2016-05-24T15:03:14.128Z,73.7
2016-05-24T15:03:24.300Z,73.6
2016-05-24T15:03:34.253Z,73.6
2016-05-24T15:03:44.099Z,73.7
2016-05-24T15:03:54.224Z,73.7
2016-05-24T15:04:04.224Z,73.6
2016-05-24T15:04:14.052Z,74
2016-05-24T15:04:24.068Z,73.9
2016-05-24T15:04:34.193Z,74.5
2016-05-24T15:04:44.024Z,74.2
2016-05-24T15:04:54.024Z,74.5
2016-05-24T15:05:04.149Z,74.1
2016-05-24T15:05:14.133Z,74.6
2016-05-24T15:05:23.977Z,74.6
2016-05-24T15:05:34.133Z,74.7
2016-05-24T15:05:44.120Z,74.7
2016-05-24T15:05:54.104Z,74.6
2016-05-24T15:06:04.088Z,75
2016-05-24T15:06:13.948Z,74.9
2016-05-24T15:06:24.073Z,75
2016-05-24T15:06:33.901Z,75.1
2016-05-24T15:06:43.888Z,75.1
2016-05-24T15:06:54.029Z,75.2
2016-05-24T15:07:04.029Z,75.4
2016-05-24T15:07:14.013Z,75.5
2016-05-24T15:07:23.998Z,75.7
2016-05-24T15:07:33.982Z,75.6
2016-05-24T15:07:43.985Z,75.7
2016-05-24T15:07:53.985Z,75.9
2016-05-24T15:08:03.969Z,76
2016-05-24T15:08:13.797Z,76.1
2016-05-24T15:08:23.938Z,75.6
2016-05-24T15:08:33.922Z,75.5
2016-05-24T15:08:43.924Z,75.9
2016-05-24T15:08:53.909Z,75.9
2016-05-24T15:09:03.737Z,76
2016-05-24T15:09:13.721Z,75.9
2016-05-24T15:09:23.706Z,75.9
2016-05-24T15:09:33.706Z,75.4
2016-05-24T15:09:43.850Z,75.5
2016-05-24T15:09:53.694Z,75.9
2016-05-24T15:10:03.835Z,75.5
2016-05-24T15:10:13.819Z,75.7
2016-05-24T15:10:23.647Z,75.8
2016-05-24T15:10:33.788Z,75.9
2016-05-24T15:10:43.790Z,76
2016-05-24T15:10:53.618Z,75.7
2016-05-24T15:11:03.759Z,75.8
2016-05-24T15:11:13.743Z,76.1
2016-05-24T15:11:23.602Z,75.8
2016-05-24T15:11:33.743Z,75.9
2016-05-24T15:11:43.558Z,75.9
2016-05-24T15:11:53.715Z,76
2016-05-24T15:12:03.699Z,75.9
2016-05-24T15:12:13.527Z,75.9
2016-05-24T15:12:23.699Z,76.2
2016-05-24T15:12:33.512Z,76.3
2016-05-24T15:12:43.515Z,76.1
2016-05-24T15:12:53.640Z,76.3
2016-05-24T15:13:03.640Z,76.4
2016-05-24T15:13:13.608Z,76.6
2016-05-24T15:13:23.624Z,76.3
2016-05-24T15:13:33.436Z,76.3
2016-05-24T15:13:43.579Z,76.1
2016-05-24T15:13:53.423Z,76.3
2016-05-24T15:14:03.563Z,75.9
2016-05-24T15:14:13.532Z,75.7
2016-05-24T15:14:23.392Z,75.6
2016-05-24T15:14:33.532Z,75.4
2016-05-24T15:14:43.520Z,75.7
2016-05-24T15:14:53.504Z,75.5
2016-05-24T15:15:03.348Z,75.7
2016-05-24T15:15:13.801Z,75.8
2016-05-24T15:15:23.473Z,75.6
2016-05-24T15:15:33.473Z,75.4
2016-05-24T15:15:43.710Z,75.4
2016-05-24T15:15:54.116Z,75.8
2016-05-24T15:16:04.163Z,75.8
2016-05-24T15:16:13.273Z,75.8
2016-05-24T15:16:23.273Z,75.8
2016-05-24T15:16:33.241Z,75.7
2016-05-24T15:16:43.400Z,76
2016-05-24T15:16:53.384Z,75.9
2016-05-24T15:17:03.368Z,76.1
2016-05-24T15:17:13.353Z,76.1
2016-05-24T15:17:23.181Z,75.8
2016-05-24T15:17:33.337Z,76.1
2016-05-24T15:17:43.324Z,76
2016-05-24T15:17:53.309Z,75.9
2016-05-24T15:18:03.293Z,76
2016-05-24T15:18:13.293Z,76
2016-05-24T15:18:23.278Z,76
2016-05-24T15:18:33.106Z,75.9
2016-05-24T15:18:43.248Z,76
2016-05-24T15:18:53.092Z,75.9
2016-05-24T15:19:03.076Z,76
2016-05-24T15:19:13.217Z,75.8
2016-05-24T15:19:23.201Z,76.3
2016-05-24T15:19:33.045Z,76.1
2016-05-24T15:19:43.189Z,76
2016-05-24T15:19:53.173Z,76
2016-05-24T15:20:03.173Z,76.2
2016-05-24T15:20:13.158Z,76.1
2016-05-24T15:20:23.173Z,75.9
2016-05-24T15:20:33.142Z,75.8
2016-05-24T15:20:43.114Z,75.8
2016-05-24T15:20:53.114Z,76.3
2016-05-24T15:21:02.942Z,76.1
2016-05-24T15:21:13.082Z,76
2016-05-24T15:21:23.082Z,76.1
2016-05-24T15:21:33.067Z,76.3
2016-05-24T15:21:43.054Z,76.1
2016-05-24T15:21:53.054Z,76.3
2016-05-24T15:22:02.898Z,76.4
2016-05-24T15:22:13.023Z,76.2
2016-05-24T15:22:23.007Z,76.3
2016-05-24T15:22:32.992Z,76.4
2016-05-24T15:22:42.994Z,76.8
2016-05-24T15:22:52.978Z,76.3
2016-05-24T15:23:02.962Z,76.1
2016-05-24T15:23:12.806Z,76.2
2016-05-24T15:23:22.947Z,76
2016-05-24T15:23:32.931Z,76.1
2016-05-24T15:23:42.919Z,75.9
2016-05-24T15:23:52.919Z,76
2016-05-24T15:24:02.919Z,76
2016-05-24T15:24:12.887Z,76.1
2016-05-24T15:24:22.715Z,76.1
2016-05-24T15:24:32.715Z,76
2016-05-24T15:24:42.702Z,75.9
2016-05-24T15:24:52.842Z,75.8
2016-05-24T15:25:02.827Z,76
2016-05-24T15:25:12.671Z,75.9
2016-05-24T15:25:22.811Z,75.8
2016-05-24T15:25:32.639Z,76
2016-05-24T15:25:42.799Z,75.9
2016-05-24T15:25:52.783Z,76.1
2016-05-24T15:26:02.611Z,75.8
2016-05-24T15:26:12.611Z,76.1
2016-05-24T15:26:22.736Z,75.9
2016-05-24T15:26:32.736Z,75.9
2016-05-24T15:26:42.568Z,76
2016-05-24T15:26:52.724Z,76.3
2016-05-24T15:27:02.709Z,76.3
2016-05-24T15:27:12.693Z,76
2016-05-24T15:27:22.678Z,75.9
2016-05-24T15:27:32.662Z,75.9
2016-05-24T15:27:42.663Z,75.8
2016-05-24T15:27:52.647Z,75.6
2016-05-24T15:28:02.632Z,75.9
2016-05-24T15:28:12.632Z,75.6
2016-05-24T15:28:22.460Z,75.6
2016-05-24T15:28:32.460Z,75.6
2016-05-24T15:28:42.603Z,75.6
2016-05-24T15:28:52.432Z,75.7
2016-05-24T15:29:02.557Z,76.1
2016-05-24T15:29:12.416Z,75.7
2016-05-24T15:29:22.541Z,75.8
2016-05-24T15:29:32.557Z,75.8
2016-05-24T15:29:42.528Z,75.5
2016-05-24T15:29:52.528Z,75.7
2016-05-24T15:30:02.513Z,75.5
2016-05-24T15:30:12.935Z,75.6
2016-05-24T15:30:22.372Z,75.6
2016-05-24T15:30:33.044Z,75.7
2016-05-24T15:30:43.172Z,75.8
2016-05-24T15:30:52.969Z,75.6
2016-05-24T15:31:02.141Z,75.6
2016-05-24T15:31:12.531Z,75.7
2016-05-24T15:31:22.266Z,76.3
2016-05-24T15:31:32.406Z,76.1
2016-05-24T15:31:42.393Z,75.9
2016-05-24T15:31:52.408Z,75.8
2016-05-24T15:32:02.205Z,75.9
2016-05-24T15:32:12.361Z,76
2016-05-24T15:32:22.346Z,76.2
2016-05-24T15:32:32.330Z,76.2
2016-05-24T15:32:42.333Z,76
2016-05-24T15:32:52.333Z,76
2016-05-24T15:33:02.161Z,75.9
2016-05-24T15:33:12.286Z,75.9
2016-05-24T15:33:22.286Z,75.6
2016-05-24T15:33:32.271Z,75.9
2016-05-24T15:33:42.274Z,75.6
2016-05-24T15:33:52.258Z,75.7
2016-05-24T15:34:02.242Z,75.5
2016-05-24T15:34:12.227Z,75.6
2016-05-24T15:34:22.242Z,75.6
2016-05-24T15:34:32.211Z,76
2016-05-24T15:34:42.198Z,75.6
2016-05-24T15:34:52.198Z,75.7
2016-05-24T15:35:02.166Z,75.3
2016-05-24T15:35:11.854Z,75.8
2016-05-24T15:35:22.151Z,75.7
2016-05-24T15:35:32.135Z,75.7
2016-05-24T15:35:41.966Z,75.1
2016-05-24T15:35:52.122Z,75
2016-05-24T15:36:02.091Z,74.9
2016-05-24T15:36:12.091Z,75
2016-05-24T15:36:22.091Z,74.9
2016-05-24T15:36:32.060Z,74.8
2016-05-24T15:36:42.063Z,74.6
2016-05-24T15:36:51.891Z,74.4
2016-05-24T15:37:01.875Z,74.6
2016-05-24T15:37:12.032Z,74.6
2016-05-24T15:37:22.000Z,74
2016-05-24T15:37:32.000Z,74.1
2016-05-24T15:37:42.000Z,73.8
2016-05-24T15:37:51.987Z,74.4
2016-05-24T15:38:01.987Z,74.5
2016-05-24T15:38:11.956Z,74.4
2016-05-24T15:38:21.956Z,74.1
2016-05-24T15:38:31.784Z,74.4
2016-05-24T15:38:41.768Z,74.1
2016-05-24T15:38:51.755Z,74
2016-05-24T15:39:01.927Z,73.5
2016-05-24T15:39:11.740Z,73.7
2016-05-24T15:39:21.724Z,74
2016-05-24T15:39:31.880Z,73.4
2016-05-24T15:39:41.865Z,73.4
2016-05-24T15:39:51.852Z,74.1
2016-05-24T15:40:01.837Z,73.8
2016-05-24T15:40:11.821Z,73.8
2016-05-24T15:40:21.821Z,74.1
2016-05-24T15:40:31.805Z,73.8
2016-05-24T15:40:41.805Z,73.5
2016-05-24T15:40:51.777Z,73.6
2016-05-24T15:41:01.777Z,73.8
2016-05-24T15:41:11.777Z,73.8
2016-05-24T15:41:21.746Z,73.8
2016-05-24T15:41:31.590Z,73.9
2016-05-24T15:41:41.730Z,73.6
2016-05-24T15:41:51.717Z,73.6
2016-05-24T15:42:01.717Z,74
2016-05-24T15:42:11.701Z,73.7
2016-05-24T15:42:21.685Z,74
2016-05-24T15:42:31.513Z,73.4
2016-05-24T15:42:41.654Z,73.1
2016-05-24T15:42:51.657Z,73.3
2016-05-24T15:43:01.501Z,73.5
2016-05-24T15:43:11.626Z,73.3
2016-05-24T15:43:21.470Z,73.4
2016-05-24T15:43:31.610Z,73.3
2016-05-24T15:43:41.595Z,73.4